createdAt,value
2023-02-22T00:00:58.544Z,25.49
2023-02-22T00:01:58.546Z,25.45
2023-02-22T00:02:58.503Z,25.46
2023-02-22T00:03:58.463Z,25.44
2023-02-22T00:04:58.426Z,25.49
2023-02-22T00:05:58.399Z,25.52
2023-02-22T00:06:58.357Z,25.51
2023-02-22T00:07:58.323Z,25.50
2023-02-22T00:08:58.300Z,25.47
2023-02-22T00:09:58.268Z,25.47
2023-02-22T00:10:58.235Z,25.48
2023-02-22T00:11:58.200Z,25.46
2023-02-22T00:12:58.169Z,25.46
2023-02-22T00:13:58.152Z,25.46
2023-02-22T00:14:58.106Z,25.45
2023-02-22T00:15:58.138Z,25.47
2023-02-22T00:16:58.075Z,25.44
2023-02-22T00:17:58.054Z,25.45
2023-02-22T00:18:58.017Z,25.46
2023-02-22T00:19:57.988Z,25.46
2023-02-22T00:20:57.989Z,25.46
2023-02-22T00:21:57.921Z,25.44
2023-02-22T00:22:57.902Z,25.47
2023-02-22T00:23:57.872Z,25.46
2023-02-22T00:24:57.821Z,25.47
2023-02-22T00:25:57.805Z,25.45
2023-02-22T00:26:57.789Z,25.46
2023-02-22T00:27:57.743Z,25.44
2023-02-22T00:28:57.716Z,25.46
2023-02-22T00:29:57.684Z,25.44
2023-02-22T00:30:57.643Z,25.44
2023-02-22T00:31:57.782Z,25.45
2023-02-22T00:32:57.574Z,25.44
2023-02-22T00:33:57.541Z,25.45
2023-02-22T00:34:57.510Z,25.46
2023-02-22T00:35:57.478Z,25.47
2023-02-22T00:36:57.447Z,25.45
2023-02-22T00:37:57.412Z,25.45
2023-02-22T00:38:57.378Z,25.45
2023-02-22T00:39:57.346Z,25.47
2023-02-22T00:40:57.308Z,25.44
2023-02-22T00:41:57.295Z,25.45
2023-02-22T00:42:57.245Z,25.45
2023-02-22T00:43:57.212Z,25.46
2023-02-22T00:44:57.177Z,25.48
2023-02-22T00:45:57.184Z,25.49
2023-02-22T00:46:57.103Z,25.48
2023-02-22T00:47:57.077Z,25.47
2023-02-22T00:48:57.033Z,25.46
2023-02-22T00:49:56.993Z,25.45
2023-02-22T00:50:56.956Z,25.45
2023-02-22T00:51:56.935Z,25.44
2023-02-22T00:52:56.900Z,25.45
2023-02-22T00:53:56.874Z,25.48
2023-02-22T00:54:56.825Z,25.42
2023-02-22T00:55:56.796Z,25.44
2023-02-22T00:56:56.760Z,25.45
2023-02-22T00:57:56.723Z,25.45
2023-02-22T00:58:56.721Z,25.45
2023-02-22T00:59:56.660Z,25.43
2023-02-22T01:00:56.695Z,25.43
2023-02-22T01:01:56.636Z,25.43
2023-02-22T01:02:56.569Z,25.47
2023-02-22T01:03:56.547Z,25.46
2023-02-22T01:04:56.515Z,25.44
2023-02-22T01:05:56.484Z,25.46
2023-02-22T01:06:56.453Z,25.44
2023-02-22T01:07:56.440Z,25.44
2023-02-22T01:08:56.402Z,25.43
2023-02-22T01:09:56.365Z,25.43
2023-02-22T01:10:56.331Z,25.41
2023-02-22T01:11:56.303Z,25.41
2023-02-22T01:12:56.266Z,25.44
2023-02-22T01:13:56.235Z,25.45
2023-02-22T01:14:56.200Z,25.43
2023-02-22T01:15:56.175Z,25.44
2023-02-22T01:16:56.169Z,25.42
2023-02-22T01:17:56.107Z,25.44
2023-02-22T01:18:56.087Z,25.42
2023-02-22T01:19:56.030Z,25.43
2023-02-22T01:20:55.994Z,25.43
2023-02-22T01:21:55.980Z,25.45
2023-02-22T01:22:55.933Z,25.45
2023-02-22T01:23:55.909Z,25.44
2023-02-22T01:24:55.869Z,25.44
2023-02-22T01:25:55.982Z,25.40
2023-02-22T01:26:55.796Z,25.42
2023-02-22T01:27:55.764Z,25.40
2023-02-22T01:28:55.718Z,25.41
2023-02-22T01:29:55.701Z,25.45
2023-02-22T01:30:55.854Z,25.43
2023-02-22T01:31:55.652Z,25.42
2023-02-22T01:32:55.585Z,25.41
2023-02-22T01:33:55.551Z,25.41
2023-02-22T01:34:55.515Z,25.40
2023-02-22T01:35:55.479Z,25.41
2023-02-22T01:36:55.438Z,25.42
2023-02-22T01:37:55.429Z,25.40
2023-02-22T01:38:55.373Z,25.41
2023-02-22T01:39:55.342Z,25.41
2023-02-22T01:40:55.301Z,25.42
2023-02-22T01:41:55.262Z,25.41
2023-02-22T01:42:55.228Z,25.40
2023-02-22T01:43:55.191Z,25.41
2023-02-22T01:44:55.150Z,25.42
2023-02-22T01:45:55.121Z,25.41
2023-02-22T01:46:55.070Z,25.41
2023-02-22T01:47:55.041Z,25.39
2023-02-22T01:48:55.008Z,25.40
2023-02-22T01:49:54.963Z,25.41
2023-02-22T01:50:54.919Z,25.39
2023-02-22T01:51:54.878Z,25.39
2023-02-22T01:52:54.845Z,25.40
2023-02-22T01:53:54.819Z,25.38
2023-02-22T01:54:54.785Z,25.37
2023-02-22T01:55:54.756Z,25.38
2023-02-22T01:56:54.714Z,25.41
2023-02-22T01:57:54.698Z,25.39
2023-02-22T01:58:54.658Z,25.37
2023-02-22T01:59:54.638Z,25.40
2023-02-22T02:00:54.591Z,25.40
2023-02-22T02:01:54.561Z,25.41
2023-02-22T02:02:54.524Z,25.44
2023-02-22T02:03:54.500Z,25.41
2023-02-22T02:04:54.474Z,25.40
2023-02-22T02:05:54.427Z,25.42
2023-02-22T02:06:54.388Z,25.42
2023-02-22T02:07:54.363Z,25.41
2023-02-22T02:08:54.333Z,25.43
2023-02-22T02:09:54.377Z,25.42
2023-02-22T02:10:54.267Z,25.39
2023-02-22T02:11:54.239Z,25.40
2023-02-22T02:12:54.224Z,25.40
2023-02-22T02:13:54.183Z,25.40
2023-02-22T02:14:54.177Z,25.42
2023-02-22T02:15:54.122Z,25.42
2023-02-22T02:22:53.950Z,25.45
2023-02-22T07:07:45.501Z,29.27
2023-02-22T07:09:45.643Z,29.44
2023-02-22T07:10:45.387Z,29.55
2023-02-22T07:11:45.354Z,29.66
2023-02-22T07:12:45.319Z,29.76
2023-02-22T07:13:45.444Z,29.84
2023-02-22T07:14:45.234Z,30.00
2023-02-22T07:15:45.225Z,30.03
2023-02-22T07:16:45.159Z,30.17
2023-02-22T07:17:45.123Z,30.11
2023-02-22T07:18:45.093Z,30.21
2023-02-22T07:19:45.057Z,30.30
2023-02-22T07:20:45.003Z,30.30
2023-02-22T07:21:44.953Z,30.29
2023-02-22T07:22:44.918Z,30.37
2023-02-22T07:23:44.884Z,30.38
2023-02-22T07:24:44.916Z,30.52
2023-02-22T07:25:44.772Z,30.60
2023-02-22T08:04:42.966Z,32.91
2023-02-22T08:23:42.056Z,33.37
2023-02-22T08:26:41.915Z,33.28
2023-02-22T08:37:41.431Z,33.41
2023-02-22T08:38:41.376Z,33.42
2023-02-22T08:39:41.340Z,33.21
2023-02-22T08:40:41.291Z,33.10
2023-02-22T08:41:41.244Z,33.05
2023-02-22T08:42:41.190Z,32.98
2023-02-22T08:43:41.210Z,32.91
2023-02-22T08:44:41.085Z,32.77
2023-02-22T08:45:41.069Z,32.84
2023-02-22T08:46:40.956Z,32.82
2023-02-22T08:47:40.901Z,32.79
2023-02-22T08:48:40.861Z,32.83
2023-02-22T08:49:40.795Z,32.82
2023-02-22T08:50:40.746Z,32.88
2023-02-22T08:51:40.690Z,32.92
2023-02-22T08:52:40.976Z,32.97
2023-02-22T08:53:40.603Z,32.91
2023-02-22T08:54:40.544Z,32.90
2023-02-22T08:55:40.493Z,32.80
2023-02-22T08:56:40.452Z,32.74
2023-02-22T08:57:40.412Z,32.18
2023-02-22T08:58:40.380Z,31.92
2023-02-22T08:59:40.298Z,31.72
2023-02-22T09:00:40.276Z,31.51
2023-02-22T09:01:40.289Z,31.37
2023-02-22T09:02:40.136Z,31.17
2023-02-22T09:03:40.158Z,30.99
2023-02-22T09:04:40.038Z,30.85
2023-02-22T09:05:40.051Z,30.66
2023-02-22T09:14:39.630Z,29.05
2023-02-22T09:15:39.499Z,29.19
2023-02-22T09:16:39.556Z,29.19
2023-02-22T09:17:39.405Z,29.15
2023-02-22T09:18:44.287Z,28.55
2023-02-22T09:19:40.334Z,28.66
2023-02-22T09:20:39.826Z,28.76
2023-02-22T09:21:39.213Z,28.66
2023-02-22T09:22:39.154Z,28.59
2023-02-22T09:23:39.118Z,28.60
2023-02-22T09:24:39.127Z,28.49
2023-02-22T09:25:39.012Z,28.43
2023-02-22T09:26:38.974Z,28.40
2023-02-22T09:27:38.908Z,28.31
2023-02-22T09:28:38.855Z,28.28
2023-02-22T09:30:38.796Z,27.90
2023-02-22T09:31:38.827Z,27.75
2023-02-22T09:32:38.853Z,27.80
2023-02-22T09:33:38.622Z,27.84
2023-02-22T09:34:38.568Z,27.81
2023-02-22T09:35:38.519Z,27.81
2023-02-22T09:36:38.486Z,27.75
2023-02-22T09:37:38.444Z,27.62
2023-02-22T09:38:38.378Z,27.56
2023-02-22T09:39:38.421Z,27.47
2023-02-22T09:40:38.280Z,27.34
2023-02-22T09:41:38.246Z,27.23
2023-02-22T09:42:38.178Z,27.15
2023-02-22T09:43:38.153Z,27.06
2023-02-22T09:44:38.081Z,26.93
2023-02-22T09:45:38.044Z,26.85
2023-02-22T09:46:37.998Z,26.84
2023-02-22T09:47:37.981Z,26.76
2023-02-22T09:48:37.884Z,26.67
2023-02-22T09:49:37.848Z,26.65
2023-02-22T09:50:37.792Z,26.55
2023-02-22T09:52:37.783Z,26.49
2023-02-22T09:53:37.668Z,26.48
2023-02-22T09:54:37.629Z,26.45
2023-02-22T09:55:37.563Z,26.31
2023-02-22T09:56:37.523Z,26.25
2023-02-22T09:57:37.485Z,26.20
2023-02-22T09:58:37.437Z,26.14
2023-02-22T09:59:37.385Z,26.12
2023-02-22T10:00:37.329Z,26.06
2023-02-22T10:01:37.324Z,25.94
2023-02-22T10:02:37.231Z,25.92
2023-02-22T10:03:37.237Z,25.78
2023-02-22T10:04:37.194Z,25.77
2023-02-22T10:05:37.098Z,25.77
2023-02-22T10:06:37.063Z,25.74
2023-02-22T10:07:37.040Z,25.71
2023-02-22T10:08:36.976Z,25.62
2023-02-22T10:09:36.927Z,25.64
2023-02-22T10:10:36.896Z,25.55
2023-02-22T10:11:36.942Z,25.53
2023-02-22T10:12:36.798Z,25.49
2023-02-22T10:13:36.756Z,25.49
2023-02-22T10:14:36.710Z,25.42
2023-02-22T10:15:36.660Z,25.40
2023-02-22T10:16:36.691Z,25.25
2023-02-22T10:17:36.608Z,25.33
2023-02-22T10:18:36.550Z,25.28
2023-02-22T10:19:36.507Z,25.27
2023-02-22T10:20:36.462Z,25.26
2023-02-22T10:21:36.522Z,25.16
2023-02-22T10:22:36.376Z,25.15
2023-02-22T10:23:36.337Z,25.13
2023-02-22T10:24:36.308Z,25.12
2023-02-22T10:25:36.278Z,25.09
2023-02-22T10:26:36.244Z,25.06
2023-02-22T10:27:36.186Z,25.02
2023-02-22T10:28:36.146Z,24.98
2023-02-22T10:29:36.117Z,24.95
2023-02-22T10:30:36.117Z,24.86
2023-02-22T10:31:36.114Z,24.86
2023-02-22T10:32:36.032Z,24.84
2023-02-22T10:33:35.974Z,24.78
2023-02-22T10:34:35.921Z,25.40
2023-02-22T10:35:35.941Z,24.97
2023-02-22T10:36:35.888Z,25.14
2023-02-22T10:37:35.894Z,25.32
2023-02-22T10:38:35.840Z,25.30
2023-02-22T10:39:35.817Z,25.24
2023-02-22T10:40:35.684Z,25.20
2023-02-22T10:41:35.666Z,25.17
2023-02-22T10:42:35.608Z,25.09
2023-02-22T10:43:35.560Z,25.20
2023-02-22T10:44:35.500Z,26.22
2023-02-22T10:45:35.497Z,26.97
2023-02-22T10:46:35.404Z,27.94
2023-02-22T10:47:35.362Z,28.90
2023-02-22T10:48:35.415Z,29.65
2023-02-22T10:49:35.253Z,30.00
2023-02-22T10:50:35.348Z,30.94
2023-02-22T10:51:35.168Z,31.46
2023-02-22T10:52:35.122Z,31.66
2023-02-22T10:53:36.530Z,32.61
2023-02-22T10:54:34.999Z,32.63
2023-02-22T10:55:34.993Z,33.00
2023-02-22T10:56:34.901Z,33.74
2023-02-22T10:57:34.870Z,33.84
2023-02-22T10:58:34.801Z,35.58
2023-02-22T10:59:34.795Z,35.78
2023-02-22T11:24:47.466Z,40.20
2023-02-22T11:25:34.500Z,39.95
2023-02-22T11:26:33.473Z,39.81
2023-02-22T11:27:33.411Z,39.79
2023-02-22T11:28:33.392Z,39.86
2023-02-22T11:34:33.056Z,40.03
2023-02-22T12:43:29.856Z,31.99
2023-02-22T12:44:29.804Z,31.93
2023-02-22T12:45:29.741Z,31.80
2023-02-22T12:46:29.780Z,31.69
2023-02-22T12:47:29.666Z,31.61
2023-02-22T12:48:29.631Z,31.68
2023-02-22T12:49:29.596Z,31.63
2023-02-22T12:50:29.569Z,31.63
2023-02-22T12:51:29.509Z,31.47
2023-02-22T12:52:29.469Z,31.30
2023-02-22T12:53:29.426Z,31.30
2023-02-22T12:54:29.436Z,31.33
2023-02-22T12:55:29.356Z,31.22
2023-02-22T12:56:29.323Z,31.16
2023-02-22T12:57:29.266Z,31.06
2023-02-22T12:58:29.225Z,30.93
2023-02-22T12:59:29.175Z,30.92
2023-02-22T13:00:29.140Z,30.74
2023-02-22T13:01:29.116Z,30.77
2023-02-22T13:02:29.056Z,30.86
2023-02-22T13:03:29.004Z,30.74
2023-02-22T13:04:28.976Z,30.73
2023-02-22T13:05:29.005Z,30.49
2023-02-22T13:06:28.906Z,30.50
2023-02-22T13:07:28.862Z,30.47
2023-02-22T13:08:28.828Z,30.50
2023-02-22T13:09:28.810Z,30.47
2023-02-22T13:10:28.743Z,30.44
2023-02-22T13:11:28.687Z,30.42
2023-02-22T13:12:28.646Z,30.33
2023-02-22T13:13:28.595Z,30.24
2023-02-22T13:14:28.547Z,30.16
2023-02-22T13:15:28.510Z,30.11
2023-02-22T13:16:28.481Z,30.14
2023-02-22T13:17:28.420Z,30.17
2023-02-22T13:18:28.401Z,30.11
2023-02-22T13:19:28.325Z,29.93
2023-02-22T13:20:28.341Z,29.94
2023-02-22T13:21:28.264Z,29.93
2023-02-22T13:22:28.202Z,29.90
2023-02-22T13:23:28.146Z,29.90
2023-02-22T13:24:28.153Z,29.84
2023-02-22T13:25:28.050Z,29.72
2023-02-22T13:26:28.004Z,29.70
2023-02-22T13:27:27.959Z,29.68
2023-02-22T13:28:27.899Z,29.56
2023-02-22T13:29:27.855Z,29.39
2023-02-22T13:30:27.905Z,29.49
2023-02-22T13:31:27.870Z,29.52
2023-02-22T13:32:27.992Z,29.45
2023-02-22T13:33:27.906Z,29.41
2023-02-22T13:34:28.720Z,29.40
2023-02-22T13:35:27.555Z,29.31
2023-02-22T13:36:27.508Z,29.24
2023-02-22T13:37:27.508Z,29.18
2023-02-22T13:38:27.413Z,29.09
2023-02-22T13:39:27.352Z,29.07
2023-02-22T13:40:27.324Z,28.99
2023-02-22T13:41:27.259Z,28.89
2023-02-22T13:42:27.227Z,28.85
2023-02-22T13:43:27.289Z,28.83
2023-02-22T13:44:27.197Z,28.82
2023-02-22T13:45:27.118Z,28.70
2023-02-22T13:46:27.075Z,28.67
2023-02-22T13:47:27.018Z,28.65
2023-02-22T13:48:26.958Z,28.58
2023-02-22T13:49:26.945Z,28.52
2023-02-22T13:50:26.875Z,28.58
2023-02-22T13:51:26.868Z,28.48
2023-02-22T13:52:26.800Z,28.37
2023-02-22T13:53:26.744Z,28.23
2023-02-22T13:54:27.903Z,28.12
2023-02-22T13:55:26.663Z,28.05
2023-02-22T13:56:26.632Z,28.01
2023-02-22T13:57:26.665Z,27.98
2023-02-22T13:58:26.555Z,27.91
2023-02-22T13:59:26.526Z,27.88
2023-02-22T14:00:26.465Z,27.81
2023-02-22T14:01:26.493Z,27.76
2023-02-22T14:02:26.346Z,27.65
2023-02-22T14:03:26.295Z,27.60
2023-02-22T14:04:26.246Z,27.51
2023-02-22T14:05:26.408Z,27.47
2023-02-22T14:06:26.152Z,27.40
2023-02-22T14:07:26.092Z,27.35
2023-02-22T14:08:26.044Z,27.27
2023-02-22T14:09:25.996Z,27.23
2023-02-22T14:14:25.757Z,27.14
2023-02-22T14:15:30.260Z,27.13
2023-02-22T14:18:25.517Z,27.08
2023-02-22T14:19:25.468Z,27.04
2023-02-22T14:24:25.176Z,27.02
2023-02-22T14:25:28.496Z,27.02
2023-02-22T14:26:25.113Z,26.99
2023-02-22T14:27:25.026Z,26.97
2023-02-22T14:28:24.983Z,26.98
2023-02-22T14:29:24.899Z,26.95
2023-02-22T14:30:24.869Z,26.87
2023-02-22T14:31:35.546Z,26.87
2023-02-22T14:32:25.872Z,26.88
2023-02-22T14:33:24.669Z,26.83
2023-02-22T14:34:24.656Z,26.81
2023-02-22T14:35:28.726Z,26.76
2023-02-22T14:36:25.533Z,26.74
2023-02-22T14:37:24.502Z,26.62
2023-02-22T14:38:24.439Z,26.64
2023-02-22T14:39:24.405Z,26.58
2023-02-22T14:40:24.338Z,26.53
2023-02-22T14:41:24.343Z,26.54
2023-02-22T14:42:24.262Z,26.49
2023-02-22T14:43:24.195Z,26.46
2023-02-22T14:44:24.147Z,26.41
2023-02-22T14:45:24.105Z,26.38
2023-02-22T14:46:24.151Z,26.44
2023-02-22T14:47:24.013Z,26.46
2023-02-22T14:48:23.945Z,26.43
2023-02-22T14:49:23.897Z,26.48
2023-02-22T14:50:23.845Z,26.50
2023-02-22T14:51:26.771Z,26.52
2023-02-22T14:52:23.721Z,26.54
2023-02-22T14:53:23.680Z,26.54
2023-02-22T14:54:23.616Z,26.55
2023-02-22T14:55:23.576Z,26.61
2023-02-22T14:56:23.532Z,26.61
2023-02-22T14:57:23.459Z,26.62
2023-02-22T14:58:23.422Z,26.62
2023-02-22T15:01:24.309Z,26.62
2023-02-22T15:02:23.255Z,26.64
2023-02-22T15:03:23.191Z,26.64
2023-02-22T15:04:23.140Z,26.64
2023-02-22T15:05:23.085Z,26.61
2023-02-22T15:06:23.056Z,26.63
2023-02-22T15:07:22.980Z,26.62
2023-02-22T15:08:22.950Z,26.64
2023-02-22T15:09:22.883Z,26.60
2023-02-22T15:10:22.855Z,26.62
2023-02-22T15:11:22.798Z,26.65
2023-02-22T15:12:22.762Z,26.62
2023-02-22T15:13:22.715Z,26.62
2023-02-22T15:14:26.258Z,26.66
2023-02-22T15:16:22.678Z,26.68
2023-02-22T15:17:22.547Z,26.69
2023-02-22T15:19:22.427Z,26.69
2023-02-22T15:20:22.424Z,26.67
2023-02-22T15:21:22.354Z,26.71
2023-02-22T15:22:22.335Z,26.73
2023-02-22T15:23:22.260Z,26.76
2023-02-22T15:24:22.226Z,26.79
2023-02-22T15:25:22.168Z,26.80
2023-02-22T15:26:22.125Z,26.83
2023-02-22T15:27:22.090Z,26.84
2023-02-22T15:28:22.059Z,26.83
2023-02-22T15:29:21.995Z,26.78
2023-02-22T15:30:22.117Z,26.80
2023-02-22T15:31:21.921Z,26.81
2023-02-22T15:32:21.964Z,26.83
2023-02-22T15:33:21.820Z,26.81
2023-02-22T15:34:21.802Z,26.83
2023-02-22T15:35:21.697Z,26.80
2023-02-22T15:36:21.664Z,26.80
2023-02-22T15:37:21.626Z,26.81
2023-02-22T15:38:21.636Z,26.83
2023-02-22T15:39:21.536Z,26.87
2023-02-22T15:40:21.480Z,26.87
2023-02-22T15:41:21.444Z,26.90
2023-02-22T15:42:21.395Z,26.85
2023-02-22T15:43:21.374Z,26.87
2023-02-22T15:44:23.978Z,26.88
2023-02-22T15:45:21.246Z,26.91
2023-02-22T15:46:21.214Z,26.91
2023-02-22T15:47:21.151Z,26.88
2023-02-22T15:48:21.115Z,26.84
2023-02-22T15:49:21.081Z,26.82
2023-02-22T15:50:21.029Z,26.84
2023-02-22T15:51:20.982Z,26.84
2023-02-22T15:52:20.942Z,26.87
2023-02-22T15:53:20.917Z,26.89
2023-02-22T15:54:27.070Z,26.91
2023-02-22T15:55:23.635Z,26.89
2023-02-22T15:56:20.783Z,26.93
2023-02-22T15:57:20.717Z,26.95
2023-02-22T15:58:20.692Z,26.91
2023-02-22T15:59:20.669Z,26.89
2023-02-22T16:00:20.588Z,26.87
2023-02-22T16:01:20.881Z,26.91
2023-02-22T16:02:20.553Z,26.94
2023-02-22T16:03:20.487Z,26.94
2023-02-22T16:04:20.461Z,26.94
2023-02-22T16:05:20.411Z,26.94
2023-02-22T16:06:20.358Z,26.93
2023-02-22T16:07:20.320Z,26.92
2023-02-22T16:08:20.285Z,26.98
2023-02-22T16:09:20.255Z,26.93
2023-02-22T16:10:20.192Z,26.95
2023-02-22T16:11:20.164Z,26.95
2023-02-22T16:12:20.121Z,26.98
2023-02-22T16:13:31.063Z,26.98
2023-02-22T16:14:21.047Z,26.99
2023-02-22T16:15:19.999Z,26.98
2023-02-22T16:16:19.976Z,26.97
2023-02-22T16:17:20.005Z,26.98
2023-02-22T16:18:19.879Z,26.99
2023-02-22T16:19:19.829Z,26.98
2023-02-22T16:20:19.795Z,26.99
2023-02-22T16:21:20.022Z,26.98
2023-02-22T16:22:19.748Z,27.00
2023-02-22T16:23:19.666Z,26.99
2023-02-22T16:24:19.628Z,27.00
2023-02-22T16:25:19.644Z,26.99
2023-02-22T16:26:19.542Z,26.99
2023-02-22T16:27:19.499Z,26.99
2023-02-22T17:10:17.821Z,26.90
2023-02-22T17:11:17.778Z,26.91
2023-02-22T17:12:17.746Z,26.91
2023-02-22T17:13:24.181Z,26.91
2023-02-22T17:14:18.678Z,26.90
2023-02-22T17:15:17.637Z,26.92
2023-02-22T17:16:18.096Z,26.91
2023-02-22T17:17:17.555Z,26.90
2023-02-22T17:18:17.525Z,26.93
2023-02-22T17:19:17.497Z,26.94
2023-02-22T17:20:17.429Z,26.92
2023-02-22T17:21:17.393Z,26.92
2023-02-22T17:22:17.354Z,26.89
2023-02-22T17:23:17.322Z,26.90
2023-02-22T17:24:17.290Z,26.86
2023-02-22T17:25:17.230Z,26.90
2023-02-22T17:26:17.500Z,26.87
2023-02-22T17:27:17.145Z,26.89
2023-02-22T17:28:17.113Z,26.88
2023-02-22T17:29:17.057Z,26.88
2023-02-22T17:30:17.074Z,26.87
2023-02-22T17:31:17.004Z,26.91
2023-02-22T17:32:16.965Z,26.89
2023-02-22T17:33:16.895Z,26.88
2023-02-22T17:34:16.874Z,26.86
2023-02-22T17:35:16.812Z,26.84
2023-02-22T17:36:17.044Z,26.84
2023-02-22T17:37:16.731Z,26.85
2023-02-22T17:38:16.696Z,26.86
2023-02-22T17:39:16.643Z,26.86
2023-02-22T17:40:16.643Z,26.86
2023-02-22T17:41:16.567Z,26.88
2023-02-22T17:42:16.512Z,26.85
2023-02-22T17:43:16.476Z,26.87
2023-02-22T17:44:16.439Z,26.88
2023-02-22T17:45:16.412Z,26.87
2023-02-22T17:46:16.860Z,26.89
2023-02-22T17:47:16.369Z,26.87
2023-02-22T17:48:16.306Z,26.87
2023-02-22T17:49:16.280Z,26.86
2023-02-22T17:50:16.264Z,26.88
2023-02-22T17:51:16.187Z,26.87
2023-02-22T17:52:16.152Z,26.87
2023-02-22T17:53:16.090Z,26.87
2023-02-22T17:54:16.057Z,26.86
2023-02-22T17:55:16.032Z,26.85
2023-02-22T17:56:16.262Z,26.86
2023-02-22T17:57:15.968Z,26.85
2023-02-22T17:58:15.940Z,26.86
2023-02-22T17:59:15.899Z,26.84
2023-02-22T18:00:15.872Z,26.82
2023-02-22T18:01:16.915Z,26.83
2023-02-22T18:02:15.811Z,26.82
2023-02-22T18:03:15.759Z,26.84
2023-02-22T18:04:15.781Z,26.85
2023-02-22T18:05:15.757Z,26.82
2023-02-22T18:06:15.887Z,26.82
2023-02-22T18:07:15.655Z,26.80
2023-02-22T18:08:15.618Z,26.80
2023-02-22T18:09:15.613Z,26.81
2023-02-22T18:10:15.556Z,26.82
2023-02-22T18:11:15.623Z,26.80
2023-02-22T18:12:15.488Z,26.79
2023-02-22T18:13:15.466Z,26.79
2023-02-22T18:14:15.429Z,26.80
2023-02-22T18:15:15.396Z,26.82
2023-02-22T18:16:15.386Z,26.83
2023-02-22T18:17:15.326Z,26.81
2023-02-22T18:18:15.299Z,26.84
2023-02-22T18:19:15.277Z,26.81
2023-02-22T18:20:15.236Z,26.81
2023-02-22T18:21:15.215Z,26.77
2023-02-22T18:22:15.176Z,26.79
2023-02-22T18:23:15.141Z,26.80
2023-02-22T18:24:15.103Z,26.82
2023-02-22T18:25:15.068Z,26.80
2023-02-22T18:26:15.091Z,26.78
2023-02-22T18:27:14.999Z,26.77
2023-02-22T18:28:14.947Z,26.78
2023-02-22T18:29:14.928Z,26.78
2023-02-22T18:30:14.904Z,26.75
2023-02-22T18:31:15.206Z,26.77
2023-02-22T18:32:14.849Z,26.75
2023-02-22T18:33:14.800Z,26.76
2023-02-22T18:34:14.768Z,26.76
2023-02-22T18:35:14.746Z,26.78
2023-02-22T18:36:14.699Z,26.76
2023-02-22T18:37:14.649Z,26.75
2023-02-22T18:38:14.604Z,26.77
2023-02-22T18:39:14.566Z,26.77
2023-02-22T18:40:14.522Z,26.77
2023-02-22T18:41:14.476Z,26.79
2023-02-22T18:42:14.435Z,26.76
2023-02-22T18:43:14.402Z,26.77
2023-02-22T18:44:14.373Z,26.76
2023-02-22T18:45:14.340Z,26.79
2023-02-22T18:46:14.375Z,26.77
2023-02-22T18:47:14.265Z,26.77
2023-02-22T18:48:14.238Z,26.76
2023-02-22T18:49:14.199Z,26.76
2023-02-22T18:50:14.157Z,26.78
2023-02-22T18:51:14.133Z,26.75
2023-02-22T18:52:14.090Z,26.75
2023-02-22T18:53:14.080Z,26.77
2023-02-22T18:54:14.061Z,26.74
2023-02-22T18:55:14.012Z,26.73
2023-02-22T18:56:13.980Z,26.75
2023-02-22T18:57:13.939Z,26.72
2023-02-22T18:58:13.899Z,26.74
2023-02-22T18:59:13.861Z,26.73
2023-02-22T19:00:13.835Z,26.72
2023-02-22T19:01:13.795Z,26.72
2023-02-22T19:02:13.767Z,26.74
2023-02-22T19:03:13.740Z,26.75
2023-02-22T19:04:13.699Z,26.75
2023-02-22T19:05:13.672Z,26.73
2023-02-22T19:06:13.636Z,26.75
2023-02-22T19:07:13.602Z,26.74
2023-02-22T19:08:13.561Z,26.73
2023-02-22T19:09:13.525Z,26.73
2023-02-22T19:10:13.506Z,26.75
2023-02-22T19:11:13.469Z,26.74
2023-02-22T19:12:13.426Z,26.75
2023-02-22T19:13:13.393Z,26.72
2023-02-22T19:24:13.084Z,26.72
2023-02-22T19:26:12.900Z,26.71
2023-02-22T19:27:12.869Z,26.71
2023-02-22T19:28:12.825Z,26.71
2023-02-22T19:29:12.792Z,26.71
2023-02-22T19:31:12.785Z,26.71
2023-02-22T19:32:12.758Z,26.73
2023-02-22T19:33:12.601Z,26.69
2023-02-22T19:34:12.555Z,26.69
2023-02-22T19:35:12.521Z,26.68
2023-02-22T19:36:12.475Z,26.71
2023-02-22T19:37:12.444Z,26.69
2023-02-22T19:38:12.404Z,26.68
2023-02-22T19:39:12.364Z,26.71
2023-02-22T19:40:12.327Z,26.68
2023-02-22T19:41:12.302Z,26.69
2023-02-22T19:42:12.252Z,26.69
2023-02-22T19:43:12.216Z,26.69
2023-02-22T19:44:12.210Z,26.67
2023-02-22T19:45:12.145Z,26.71
2023-02-22T19:46:12.110Z,26.69
2023-02-22T19:47:12.079Z,26.67
2023-02-22T19:48:12.044Z,26.70
2023-02-22T19:49:12.003Z,26.68
2023-02-22T19:50:11.972Z,26.69
2023-02-22T19:51:11.942Z,26.69
2023-02-22T19:52:11.911Z,26.67
2023-02-22T19:53:11.864Z,26.68
2023-02-22T19:54:11.833Z,26.67
2023-02-22T19:55:11.793Z,26.68
2023-02-22T19:56:11.808Z,26.66
2023-02-22T19:57:11.727Z,26.67
2023-02-22T19:58:11.684Z,26.66
2023-02-22T19:59:11.672Z,26.67
2023-02-22T20:00:11.637Z,26.63
2023-02-22T20:01:11.605Z,26.66
2023-02-22T20:02:11.576Z,26.67
2023-02-22T20:03:11.556Z,26.65
2023-02-22T20:04:11.676Z,26.67
2023-02-22T20:05:11.474Z,26.65
2023-02-22T20:06:11.459Z,26.64
2023-02-22T20:07:11.432Z,26.65
2023-02-22T20:08:11.396Z,26.63
2023-02-22T20:09:11.365Z,26.65
2023-02-22T20:10:11.332Z,26.64
2023-02-22T20:11:11.308Z,26.64
2023-02-22T20:12:11.290Z,26.65
2023-02-22T20:13:11.235Z,26.63
2023-02-22T20:14:11.207Z,26.62
2023-02-22T20:15:11.148Z,26.64
2023-02-22T20:16:11.144Z,26.66
2023-02-22T20:17:11.086Z,26.64
2023-02-22T20:18:11.040Z,26.63
2023-02-22T20:19:11.003Z,26.65
2023-02-22T20:20:10.972Z,26.62
2023-02-22T20:21:10.935Z,26.63
2023-02-22T20:22:10.911Z,26.66
2023-02-22T20:23:10.876Z,26.62
2023-02-22T20:24:10.834Z,26.64
2023-02-22T20:25:10.791Z,26.64
2023-02-22T20:26:10.761Z,26.63
2023-02-22T20:27:10.727Z,26.64
2023-02-22T20:28:10.724Z,26.63
2023-02-22T20:29:10.665Z,26.62
2023-02-22T20:30:10.637Z,26.64
2023-02-22T20:31:10.598Z,26.63
2023-02-22T20:32:10.767Z,26.63
2023-02-22T20:33:10.675Z,26.64
2023-02-22T20:34:10.620Z,26.61
2023-02-22T20:35:10.489Z,26.62
2023-02-22T20:36:10.468Z,26.63
2023-02-22T20:37:10.425Z,26.62
2023-02-22T20:38:10.407Z,26.61
2023-02-22T20:39:10.368Z,26.63
2023-02-22T20:40:10.340Z,26.62
2023-02-22T20:41:10.309Z,26.64
2023-02-22T20:42:10.286Z,26.62
2023-02-22T20:43:10.260Z,26.61
2023-02-22T20:44:10.221Z,26.62
2023-02-22T20:45:11.912Z,26.60
2023-02-22T20:46:10.231Z,26.62
2023-02-22T20:47:10.130Z,26.62
2023-02-22T20:48:10.110Z,26.61
2023-02-22T20:49:10.154Z,26.58
2023-02-22T20:50:10.051Z,26.57
2023-02-22T20:51:10.051Z,26.58
2023-02-22T20:52:10.021Z,26.58
2023-02-22T20:53:10.709Z,26.60
2023-02-22T20:54:09.956Z,26.59
2023-02-22T20:55:09.892Z,26.59
2023-02-22T20:56:09.843Z,26.59
2023-02-22T20:57:09.833Z,26.60
2023-02-22T20:58:09.789Z,26.61
2023-02-22T20:59:09.747Z,26.61
2023-02-22T21:00:09.732Z,26.60
2023-02-22T21:01:09.728Z,26.60
2023-02-22T21:02:09.649Z,26.58
2023-02-22T21:03:09.636Z,26.62
2023-02-22T21:04:09.584Z,26.61
2023-02-22T21:05:09.553Z,26.62
2023-02-22T21:06:09.520Z,26.58
2023-02-22T21:07:09.508Z,26.58
2023-02-22T21:08:09.477Z,26.58
2023-02-22T21:09:09.432Z,26.59
2023-02-22T21:10:09.390Z,26.56
2023-02-22T21:11:09.354Z,26.56
2023-02-22T21:12:09.314Z,26.59
2023-02-22T21:13:11.546Z,26.57
2023-02-22T21:14:09.253Z,26.57
2023-02-22T21:15:09.199Z,26.57
2023-02-22T21:16:09.226Z,26.58
2023-02-22T21:17:09.247Z,26.56
2023-02-22T21:18:09.102Z,26.58
2023-02-22T21:19:09.062Z,26.57
2023-02-22T21:20:09.020Z,26.56
2023-02-22T21:21:08.988Z,26.58
2023-02-22T21:22:08.971Z,26.57
2023-02-22T21:23:08.939Z,26.58
2023-02-22T21:24:08.887Z,26.55
2023-02-22T21:25:08.852Z,26.56
2023-02-22T21:26:08.828Z,26.54
2023-02-22T21:27:08.823Z,26.53
2023-02-22T21:28:08.756Z,26.50
2023-02-22T21:29:08.728Z,26.50
2023-02-22T21:30:08.705Z,26.48
2023-02-22T21:31:08.761Z,26.47
2023-02-22T21:32:08.929Z,26.48
2023-02-22T21:33:08.602Z,26.50
2023-02-22T21:34:08.575Z,26.50
2023-02-22T21:35:08.544Z,26.51
2023-02-22T21:36:08.521Z,26.51
2023-02-22T21:37:08.483Z,26.50
2023-02-22T21:38:08.447Z,26.50
2023-02-22T21:39:08.440Z,26.52
2023-02-22T21:40:08.380Z,26.52
2023-02-22T21:41:08.343Z,26.51
2023-02-22T21:42:08.325Z,26.53
2023-02-22T21:43:08.270Z,26.52
2023-02-22T21:44:08.246Z,26.52
2023-02-22T21:45:08.199Z,26.50
2023-02-22T21:46:08.231Z,26.50